Time;durP1;ratioP1;P1;durP2;ratioP2;P2;SDS_P1;SDS_P2;PMS_P1;PMS_P2;Temp;Humidity;BMP_temperature;BMP_pressure;BME280_temperature;BME280_humidity;BME280_pressure;Samples;Min_cycle;Max_cycle;Signal;HPM_P1;HPM_P2
2023/06/12 00:02:18;;;;;;;9.75;8.18;;;;;;;20.15;59.49;100673.09;5002750;28;20042;-77
2023/06/12 00:04:45;;;;;;;9.32;8.23;;;;;;;20.06;59.56;100669.91;5002175;28;20552;-77
2023/06/12 00:07:12;;;;;;;9.38;7.97;;;;;;;20.07;59.56;100673.38;4990759;28;20050;-77
2023/06/12 00:09:39;;;;;;;10.18;7.60;;;;;;;20.06;59.83;100669.09;4990908;28;20064;-77
2023/06/12 00:12:06;;;;;;;10.73;8.52;;;;;;;20.02;59.51;100674.03;4990479;28;20078;-77
2023/06/12 00:14:34;;;;;;;9.27;8.23;;;;;;;20.04;59.69;100676.47;5005288;28;20049;-76
2023/06/12 00:17:01;;;;;;;10.18;8.48;;;;;;;20.01;60.23;100683.03;5006362;28;20137;-78
2023/06/12 00:19:28;;;;;;;10.80;8.35;;;;;;;19.96;61.80;100690.00;5008023;28;20046;-77
2023/06/12 00:21:55;;;;;;;9.68;8.32;;;;;;;19.93;62.15;100680.63;4994138;28;20065;-76
2023/06/12 00:24:21;;;;;;;10.52;8.80;;;;;;;19.75;62.16;100688.53;4994562;28;20065;-78
2023/06/12 00:26:48;;;;;;;10.48;9.27;;;;;;;19.66;61.91;100693.28;4994191;28;20050;-77
2023/06/12 00:29:15;;;;;;;11.23;9.00;;;;;;;19.66;62.02;100689.81;4993724;28;20081;-77
2023/06/12 00:31:43;;;;;;;12.32;9.50;;;;;;;19.58;62.26;100685.56;5001837;28;20088;-75
2023/06/12 00:34:10;;;;;;;12.05;9.20;;;;;;;19.47;62.57;100694.19;5010836;28;20492;-76
2023/06/12 00:36:36;;;;;;;13.48;9.82;;;;;;;19.40;62.67;100690.75;4994419;28;20058;-76
2023/06/12 00:39:03;;;;;;;14.13;10.25;;;;;;;19.41;62.45;100681.75;4994771;28;20431;-75
2023/06/12 00:41:30;;;;;;;12.15;10.02;;;;;;;19.38;62.23;100684.81;4996076;28;20057;-76
2023/06/12 00:43:56;;;;;;;12.43;10.05;;;;;;;19.40;62.45;100686.25;4994348;28;20133;-77
2023/06/12 00:46:23;;;;;;;12.52;9.35;;;;;;;19.33;62.68;100679.38;4999523;28;20442;-77
2023/06/12 00:48:51;;;;;;;17.08;11.30;;;;;;;19.24;62.89;100684.09;4996300;28;20526;-78
2023/06/12 00:51:18;;;;;;;11.50;9.90;;;;;;;19.22;62.84;100683.50;4989816;28;20511;-76
2023/06/12 00:53:45;;;;;;;12.43;10.07;;;;;;;19.20;62.97;100689.00;4990402;28;20043;-77
2023/06/12 00:56:13;;;;;;;12.43;9.77;;;;;;;19.10;63.02;100690.47;4993846;28;20485;-76
2023/06/12 00:58:40;;;;;;;12.90;9.57;;;;;;;19.06;64.08;100683.97;4986100;28;20062;-77
2023/06/12 01:01:08;;;;;;;16.52;11.63;;;;;;;19.04;63.97;100691.31;4996590;28;20053;-76
2023/06/12 01:03:35;;;;;;;12.55;10.02;;;;;;;18.98;64.21;100684.19;5006979;28;20053;-77
2023/06/12 01:06:09;;;;;;;12.95;9.65;;;;;;;18.88;64.25;100682.81;4996118;28;20394;-76
2023/06/12 01:08:50;;;;;;;11.98;8.95;;;;;;;18.76;64.89;100679.19;5013051;28;20148;-77
2023/06/12 01:11:19;;;;;;;9.55;8.55;;;;;;;18.68;63.81;100676.75;5007448;28;20073;-76
2023/06/12 01:13:45;;;;;;;10.82;8.75;;;;;;;18.72;63.20;100675.31;5012859;28;20054;-76
2023/06/12 01:16:12;;;;;;;10.98;9.10;;;;;;;18.78;63.65;100674.50;4993407;28;20133;-78
2023/06/12 01:18:38;;;;;;;9.85;8.75;;;;;;;18.80;63.52;100668.97;4993484;28;20051;-77
2023/06/12 01:21:13;;;;;;;12.73;9.23;;;;;;;18.76;63.99;100668.59;4993238;28;20512;-77
2023/06/12 01:24:10;;;;;;;11.63;8.90;;;;;;;18.72;64.28;100674.50;4993738;28;20421;-77
2023/06/12 01:26:51;;;;;;;12.88;9.43;;;;;;;18.70;64.57;100680.00;4993498;28;20133;-77
2023/06/12 01:29:50;;;;;;;10.93;9.10;;;;;;;18.61;65.62;100686.56;4986188;28;20393;-77
2023/06/12 01:32:19;;;;;;;13.80;10.55;;;;;;;18.49;66.41;100680.22;4993176;28;20074;-77
2023/06/12 01:34:51;;;;;;;14.32;10.85;;;;;;;18.44;68.38;100687.97;4993820;28;20050;-76
2023/06/12 01:37:27;;;;;;;15.60;12.63;;;;;;;18.29;68.92;100688.22;4993320;28;20426;-76
2023/06/12 01:39:57;;;;;;;20.73;16.77;;;;;;;18.20;69.46;100682.28;4993930;28;20153;-78
2023/06/12 01:42:25;;;;;;;45.65;39.42;;;;;;;18.10;68.80;100686.38;4995211;28;20047;-78
2023/06/12 01:44:52;;;;;;;50.70;43.08;;;;;;;18.04;68.62;100666.81;4987335;28;20479;-78
2023/06/12 01:47:21;;;;;;;51.65;44.45;;;;;;;18.04;68.76;100672.09;5007768;28;20085;-77
2023/06/12 01:49:48;;;;;;;48.90;41.83;;;;;;;17.94;67.90;100669.06;5015107;28;20050;-78
2023/06/12 01:52:14;;;;;;;32.65;29.13;;;;;;;17.82;67.11;100666.22;5013702;28;20132;-79
2023/06/12 01:54:41;;;;;;;27.15;23.33;;;;;;;17.81;67.21;100666.41;5014467;28;20567;-77
2023/06/12 01:57:08;;;;;;;20.75;17.88;;;;;;;17.75;67.19;100657.44;4994604;28;20054;-78
2023/06/12 01:59:34;;;;;;;19.65;17.55;;;;;;;17.71;67.16;100661.50;4994628;28;20058;-78
2023/06/12 02:02:01;;;;;;;18.17;14.57;;;;;;;17.65;67.41;100656.16;5002340;28;20456;-78
2023/06/12 02:04:32;;;;;;;13.60;12.18;;;;;;;17.69;67.06;100660.06;4993726;28;20190;-77
2023/06/12 02:06:59;;;;;;;12.43;11.13;;;;;;;17.63;67.04;100656.38;4993991;28;20053;-78
2023/06/12 02:09:26;;;;;;;13.25;10.95;;;;;;;17.69;66.93;100654.78;4992876;28;20057;-76
2023/06/12 02:11:52;;;;;;;13.55;11.40;;;;;;;17.73;66.84;100661.31;4991750;28;20504;-77
2023/06/12 02:14:20;;;;;;;15.57;11.48;;;;;;;17.69;67.25;100657.44;4992587;28;20082;-77
2023/06/12 02:16:47;;;;;;;12.07;10.77;;;;;;;17.64;67.16;100662.47;4992086;28;20050;-77
2023/06/12 02:19:14;;;;;;;12.75;10.63;;;;;;;17.55;67.25;100657.38;4992457;28;20061;-77
2023/06/12 02:21:42;;;;;;;14.45;11.00;;;;;;;17.55;67.56;100664.50;4992132;28;20129;-77
2023/06/12 02:24:09;;;;;;;13.63;11.13;;;;;;;17.51;67.93;100658.78;4992171;28;20129;-77
2023/06/12 02:26:35;;;;;;;13.15;11.75;;;;;;;17.54;68.21;100668.97;4991904;28;20504;-77
2023/06/12 02:29:09;;;;;;;11.95;10.70;;;;;;;17.51;68.14;100663.25;4991849;28;20057;-77
2023/06/12 02:31:36;;;;;;;12.43;11.18;;;;;;;17.44;68.16;100663.28;4998438;28;20128;-76
2023/06/12 02:34:03;;;;;;;16.20;11.52;;;;;;;17.39;68.33;100667.53;5001113;28;20116;-77
2023/06/12 02:36:30;;;;;;;13.70;10.85;;;;;;;17.29;68.83;100681.13;4992380;28;20574;-78
2023/06/12 02:38:58;;;;;;;12.32;10.95;;;;;;;17.25;68.82;100682.53;4991660;28;20042;-75
2023/06/12 02:41:25;;;;;;;12.15;10.43;;;;;;;17.15;69.17;100684.72;4992018;28;20137;-77
2023/06/12 02:43:52;;;;;;;11.07;9.77;;;;;;;17.20;69.24;100683.13;4983788;28;20047;-75
2023/06/12 02:46:18;;;;;;;12.15;9.18;;;;;;;17.18;68.87;100682.50;4996230;28;20076;-76
2023/06/12 02:48:45;;;;;;;11.75;9.57;;;;;;;17.18;68.53;100676.41;4989855;28;20124;-77
2023/06/12 02:51:12;;;;;;;12.30;9.70;;;;;;;17.13;68.58;100679.63;4988324;28;20081;-77
2023/06/12 02:53:38;;;;;;;12.75;8.95;;;;;;;17.15;68.79;100684.72;4987855;28;20133;-77
2023/06/12 02:56:06;;;;;;;10.32;8.23;;;;;;;17.10;68.69;100692.44;4991736;28;20086;-77
2023/06/12 02:58:34;;;;;;;10.95;9.10;;;;;;;17.09;68.98;100686.31;4991566;28;20085;-77
2023/06/12 03:01:00;;;;;;;11.48;8.95;;;;;;;17.09;69.08;100683.69;4993277;28;20129;-78
2023/06/12 03:03:28;;;;;;;10.95;9.18;;;;;;;17.06;69.12;100685.91;5005481;28;20527;-78
2023/06/12 03:05:55;;;;;;;10.98;9.02;;;;;;;17.01;69.32;100689.16;4991758;28;20046;-78
2023/06/12 03:08:22;;;;;;;13.00;9.23;;;;;;;17.04;69.35;100682.63;4990324;28;20133;-76
2023/06/12 03:10:48;;;;;;;12.27;8.80;;;;;;;17.00;69.62;100692.00;4992790;28;20097;-77
2023/06/12 03:13:16;;;;;;;11.35;8.95;;;;;;;16.92;70.17;100691.16;4995145;28;20043;-76
2023/06/12 03:15:44;;;;;;;13.13;8.68;;;;;;;16.88;70.54;100689.91;4997707;28;20072;-75
2023/06/12 03:18:10;;;;;;;10.48;9.05;;;;;;;16.89;70.74;100691.53;4990285;28;20050;-76
2023/06/12 03:20:37;;;;;;;9.85;8.85;;;;;;;16.99;70.46;100698.31;4992724;28;20517;-75
2023/06/12 03:23:04;;;;;;;10.90;9.05;;;;;;;16.92;71.02;100693.78;4991222;28;20210;-76
2023/06/12 03:25:30;;;;;;;13.65;9.10;;;;;;;16.86;71.13;100694.56;4991209;28;20534;-75
2023/06/12 03:27:57;;;;;;;11.07;9.48;;;;;;;16.88;71.51;100700.47;4991198;28;20078;-75
2023/06/12 03:30:25;;;;;;;12.35;9.02;;;;;;;16.83;71.58;100705.53;4991063;28;20228;-75
2023/06/12 03:32:52;;;;;;;11.98;9.20;;;;;;;16.77;71.77;100708.13;5007857;28;20049;-75
2023/06/12 03:35:20;;;;;;;15.00;9.23;;;;;;;16.71;72.17;100707.09;5003636;28;20081;-74
2023/06/12 03:37:46;;;;;;;11.30;9.30;;;;;;;16.68;72.70;100699.53;5002470;28;20054;-75
2023/06/12 03:40:13;;;;;;;10.90;9.20;;;;;;;16.71;72.58;100700.97;4991650;28;20471;-76
2023/06/12 03:42:40;;;;;;;13.20;9.43;;;;;;;16.72;72.64;100700.78;4991059;28;20520;-76
2023/06/12 03:45:08;;;;;;;11.07;9.07;;;;;;;16.83;72.45;100705.53;4991293;28;20050;-77
2023/06/12 03:47:36;;;;;;;13.77;10.05;;;;;;;16.87;72.48;100698.84;4987016;28;20133;-75
2023/06/12 03:50:03;;;;;;;11.30;9.32;;;;;;;16.90;73.02;100703.75;4993554;28;20176;-75
2023/06/12 03:52:29;;;;;;;12.75;10.05;;;;;;;17.03;73.59;100710.91;4994363;28;20054;-76
2023/06/12 03:54:56;;;;;;;10.93;9.50;;;;;;;17.04;73.76;100711.72;4995438;28;20057;-75
2023/06/12 03:57:22;;;;;;;12.75;9.35;;;;;;;16.99;74.06;100714.16;4995060;28;20061;-76
2023/06/12 03:59:49;;;;;;;18.42;9.70;;;;;;;16.86;74.10;100706.97;4994960;28;20050;-76
2023/06/12 04:02:16;;;;;;;12.52;9.48;;;;;;;16.95;74.08;100712.91;5006458;28;20049;-75
2023/06/12 04:04:44;;;;;;;13.00;9.32;;;;;;;17.51;73.07;100706.41;4998884;28;20050;-76
2023/06/12 04:07:13;;;;;;;9.95;8.98;;;;;;;18.40;70.72;100695.53;4994892;28;20564;-76
2023/06/12 04:09:39;;;;;;;10.98;8.88;;;;;;;19.12;67.94;100697.22;4994868;28;20054;-77
2023/06/12 04:12:07;;;;;;;12.63;9.27;;;;;;;19.77;65.96;100697.09;4994426;28;20093;-74
2023/06/12 04:14:33;;;;;;;11.73;9.35;;;;;;;19.90;64.87;100702.31;4994789;28;20050;-76
2023/06/12 04:17:00;;;;;;;10.93;9.27;;;;;;;20.01;64.30;100700.78;4994672;28;20130;-77
2023/06/12 04:19:27;;;;;;;11.02;9.15;;;;;;;19.88;64.62;100707.00;4994962;28;20167;-76
2023/06/12 04:21:55;;;;;;;13.48;9.60;;;;;;;19.82;64.68;100713.22;4994377;28;20133;-76
2023/06/12 04:24:22;;;;;;;14.07;8.90;;;;;;;19.91;64.17;100709.25;4994394;28;20054;-77
2023/06/12 04:26:49;;;;;;;11.02;9.68;;;;;;;20.28;63.37;100715.50;4994425;28;20085;-76
2023/06/12 04:29:17;;;;;;;13.52;9.10;;;;;;;20.27;63.21;100710.41;4994142;28;20579;-74
2023/06/12 04:31:43;;;;;;;13.02;9.23;;;;;;;20.03;63.37;100712.03;5001547;28;20053;-75
2023/06/12 04:34:15;;;;;;;12.40;9.05;;;;;;;19.79;64.43;100711.78;5013745;28;20577;-76
2023/06/12 04:36:43;;;;;;;11.70;9.35;;;;;;;19.59;64.81;100716.41;5013967;28;20053;-74
2023/06/12 04:39:13;;;;;;;11.68;9.82;;;;;;;19.48;65.36;100709.06;5005748;28;20496;-76
2023/06/12 04:41:41;;;;;;;14.10;9.98;;;;;;;19.63;65.68;100712.28;5013832;28;20431;-76
2023/06/12 04:44:08;;;;;;;13.73;9.60;;;;;;;19.93;65.22;100717.00;5005088;28;20432;-76
2023/06/12 04:46:35;;;;;;;15.05;9.18;;;;;;;20.62;63.79;100719.50;4997392;28;20050;-76
2023/06/12 04:49:02;;;;;;;11.13;9.60;;;;;;;20.90;62.50;100708.38;4993336;28;20177;-77
2023/06/12 04:51:29;;;;;;;18.27;9.48;;;;;;;20.75;63.55;100711.41;4994517;28;20054;-76
2023/06/12 04:53:57;;;;;;;18.52;9.60;;;;;;;20.62;63.83;100706.22;5003211;28;20140;-77
2023/06/12 04:56:25;;;;;;;13.68;9.70;;;;;;;20.80;64.19;100722.16;4994842;28;20491;-78
2023/06/12 04:58:51;;;;;;;16.05;9.48;;;;;;;21.14;63.82;100710.13;4994174;28;20071;-78
2023/06/12 05:01:22;;;;;;;15.55;10.20;;;;;;;21.27;63.56;100722.47;4995944;28;20050;-78
2023/06/12 05:03:50;;;;;;;12.43;10.02;;;;;;;21.70;62.26;100722.34;4993739;28;20058;-76
2023/06/12 05:06:16;;;;;;;17.48;9.95;;;;;;;21.07;62.64;100714.72;5006391;28;20054;-77
2023/06/12 05:08:43;;;;;;;15.30;10.57;;;;;;;20.94;62.45;100714.06;4991212;28;20065;-77
2023/06/12 05:11:10;;;;;;;12.32;9.65;;;;;;;21.20;62.55;100719.06;4997967;28;20084;-77
2023/06/12 05:13:38;;;;;;;12.43;9.75;;;;;;;21.44;62.21;100723.50;4998236;28;20496;-77
2023/06/12 05:16:04;;;;;;;13.20;9.82;;;;;;;21.80;60.92;100716.44;5002657;28;20054;-75
2023/06/12 05:18:31;;;;;;;15.18;10.20;;;;;;;22.22;59.50;100719.09;4996809;28;20078;-76
2023/06/12 05:20:59;;;;;;;12.48;9.85;;;;;;;22.63;59.06;100719.00;5001970;28;20133;-76
2023/06/12 05:23:25;;;;;;;12.18;9.98;;;;;;;23.00;57.66;100716.06;4993276;28;20061;-76
2023/06/12 05:25:52;;;;;;;11.75;9.65;;;;;;;23.73;55.68;100713.47;5003036;28;20129;-75
2023/06/12 05:28:19;;;;;;;13.25;9.57;;;;;;;24.56;54.09;100711.06;5006484;28;20061;-75
2023/06/12 05:30:48;;;;;;;13.27;10.02;;;;;;;25.61;51.98;100709.91;5007098;28;20129;-76
2023/06/12 05:33:17;;;;;;;10.20;9.20;;;;;;;25.97;51.81;100717.25;4992905;28;20527;-75
2023/06/12 05:35:44;;;;;;;13.30;9.48;;;;;;;26.67;50.39;100705.41;4993184;28;20133;-75
2023/06/12 05:38:10;;;;;;;13.98;9.43;;;;;;;27.23;48.80;100713.72;4993856;28;20401;-75
2023/06/12 05:40:37;;;;;;;11.93;9.38;;;;;;;26.96;48.14;100710.38;4993281;28;20141;-76
2023/06/12 05:43:04;;;;;;;12.50;9.27;;;;;;;27.28;48.30;100708.38;4992963;28;20508;-75
2023/06/12 05:45:31;;;;;;;13.30;9.45;;;;;;;27.03;47.66;100702.91;5001663;28;20085;-76
2023/06/12 05:47:59;;;;;;;11.98;9.57;;;;;;;26.86;47.31;100697.72;5001113;28;20093;-76
2023/06/12 05:50:26;;;;;;;13.25;9.43;;;;;;;27.74;46.63;100703.91;5006243;28;20511;-75
2023/06/12 05:52:52;;;;;;;12.30;9.38;;;;;;;27.77;46.81;100713.31;5011834;28;20124;-76
2023/06/12 05:55:19;;;;;;;14.23;9.57;;;;;;;28.26;45.57;100704.72;5015083;28;20054;-77
2023/06/12 05:57:46;;;;;;;15.27;9.73;;;;;;;27.48;46.70;100696.03;5012575;28;20168;-77
2023/06/12 06:00:14;;;;;;;10.65;9.35;;;;;;;28.15;46.98;100711.94;5003046;28;20149;-77
2023/06/12 06:02:42;;;;;;;10.35;8.73;;;;;;;28.32;46.97;100709.81;4992484;28;20081;-78
2023/06/12 06:05:11;;;;;;;15.75;9.48;;;;;;;28.95;45.09;100715.56;4993589;28;20050;-77
2023/06/12 06:07:38;;;;;;;12.63;8.93;;;;;;;28.62;45.66;100708.94;4992752;28;20376;-76
2023/06/12 06:10:05;;;;;;;17.02;9.55;;;;;;;29.07;44.66;100693.69;4993235;28;20129;-78
2023/06/12 06:12:32;;;;;;;13.38;8.77;;;;;;;28.61;45.05;100696.56;5003306;28;20069;-77
2023/06/12 06:14:58;;;;;;;14.25;8.40;;;;;;;28.18;46.32;100707.91;5003239;28;20050;-78
2023/06/12 06:17:25;;;;;;;12.95;8.40;;;;;;;28.27;46.19;100712.50;5012028;28;20050;-75
2023/06/12 06:19:51;;;;;;;15.32;9.20;;;;;;;27.48;47.29;100715.66;5013607;28;20046;-77
2023/06/12 06:22:20;;;;;;;15.85;9.40;;;;;;;28.03;45.95;100709.53;4992587;28;20062;-77
2023/06/12 06:24:46;;;;;;;11.68;8.98;;;;;;;27.89;46.23;100705.75;4996549;28;20056;-77
2023/06/12 06:27:13;;;;;;;14.63;8.90;;;;;;;28.86;45.45;100702.94;4991396;28;20054;-78
2023/06/12 06:29:39;;;;;;;18.95;8.90;;;;;;;28.33;46.28;100702.56;4988339;28;20081;-76
2023/06/12 06:32:07;;;;;;;11.82;8.63;;;;;;;29.67;44.86;100716.00;4990678;28;20062;-76
2023/06/12 06:34:37;;;;;;;18.58;8.73;;;;;;;29.55;44.64;100710.16;4991254;28;20093;-76
2023/06/12 06:37:04;;;;;;;11.23;8.68;;;;;;;29.76;44.58;100714.31;4990609;28;20133;-77
2023/06/12 06:39:32;;;;;;;15.52;9.05;;;;;;;28.48;46.13;100710.56;4985537;28;20145;-76
2023/06/12 06:41:58;;;;;;;15.85;9.25;;;;;;;30.82;42.97;100719.78;4973433;28;20488;-76
2023/06/12 06:44:25;;;;;;;14.55;8.20;;;;;;;29.69;43.35;100701.16;4972721;28;20061;-75
2023/06/12 06:46:52;;;;;;;21.83;8.60;;;;;;;28.84;44.23;100699.72;4980922;28;20050;-75
2023/06/12 06:49:18;;;;;;;11.32;8.13;;;;;;;29.77;44.18;100713.22;4985047;28;20092;-76
2023/06/12 06:51:45;;;;;;;12.13;8.00;;;;;;;29.17;45.20;100715.19;4990921;28;20114;-76
2023/06/12 06:54:12;;;;;;;9.38;8.38;;;;;;;28.05;45.73;100711.94;4988221;28;20089;-76
2023/06/12 06:56:40;;;;;;;11.88;7.93;;;;;;;27.85;46.82;100710.09;4987239;28;20046;-76
2023/06/12 06:59:06;;;;;;;11.60;8.20;;;;;;;28.16;46.14;100712.75;4991988;28;20058;-78
2023/06/12 07:01:34;;;;;;;11.15;8.63;;;;;;;27.66;46.09;100701.75;4985291;28;20477;-77
2023/06/12 07:04:01;;;;;;;10.05;8.18;;;;;;;29.19;44.84;100696.88;4974144;28;20066;-77
2023/06/12 07:06:28;;;;;;;9.63;7.55;;;;;;;30.48;43.31;100701.78;4991991;28;20054;-76
2023/06/12 07:08:54;;;;;;;14.13;8.30;;;;;;;29.59;42.56;100695.81;4991577;28;20046;-75
2023/06/12 07:11:21;;;;;;;10.18;8.00;;;;;;;31.12;41.89;100699.69;4991464;28;20050;-77
2023/06/12 07:13:49;;;;;;;11.15;7.68;;;;;;;29.76;42.78;100690.03;4983276;28;20145;-76
2023/06/12 07:16:16;;;;;;;11.88;8.23;;;;;;;28.08;44.46;100689.91;4984734;28;20081;-76
2023/06/12 07:18:43;;;;;;;9.85;7.75;;;;;;;29.01;43.71;100700.19;4984627;28;20553;-76
2023/06/12 07:21:09;;;;;;;8.85;7.90;;;;;;;28.56;44.47;100690.38;4991877;28;20494;-76
2023/06/12 07:23:36;;;;;;;12.60;8.07;;;;;;;28.38;44.64;100691.75;4983672;28;20054;-76
2023/06/12 07:26:03;;;;;;;13.90;9.02;;;;;;;28.69;43.88;100693.28;4975291;28;20086;-76
2023/06/12 07:28:30;;;;;;;16.05;8.23;;;;;;;28.97;43.28;100693.75;4991742;28;20479;-77
2023/06/12 07:30:58;;;;;;;10.57;8.27;;;;;;;28.19;44.45;100685.31;4974298;28;20058;-76
2023/06/12 07:33:24;;;;;;;12.25;8.00;;;;;;;28.20;44.42;100689.63;4972240;28;20057;-76
2023/06/12 07:35:51;;;;;;;9.27;7.75;;;;;;;28.04;44.61;100691.50;4988025;28;20050;-75
2023/06/12 07:38:18;;;;;;;9.30;8.18;;;;;;;27.77;44.65;100682.94;4984131;28;20133;-76
2023/06/12 07:40:44;;;;;;;10.10;8.13;;;;;;;27.68;44.55;100686.16;4983531;28;20476;-76
2023/06/12 07:43:11;;;;;;;10.82;8.57;;;;;;;27.84;44.49;100678.91;4983011;28;20057;-76
2023/06/12 07:45:37;;;;;;;9.23;7.93;;;;;;;28.26;45.09;100689.38;4991462;28;20060;-77
2023/06/12 07:48:07;;;;;;;8.82;8.00;;;;;;;26.82;46.32;100691.25;5008799;23;20042;-79
2023/06/12 07:50:34;;;;;;;10.35;8.82;;;;;;;27.81;45.33;100687.50;4993378;28;20488;-79
2023/06/12 07:53:00;;;;;;;11.68;8.00;;;;;;;27.97;44.58;100681.03;4986915;28;20057;-80
2023/06/12 07:55:30;;;;;;;8.68;7.82;;;;;;;28.22;44.12;100676.72;4990497;28;20141;-80
2023/06/12 07:57:57;;;;;;;11.90;8.18;;;;;;;27.95;44.80;100669.72;4992831;28;20046;-79
2023/06/12 08:00:24;;;;;;;10.55;8.00;;;;;;;27.97;44.89;100675.66;4972051;28;20050;-80
2023/06/12 08:02:57;;;;;;;9.73;7.93;;;;;;;27.95;44.64;100669.72;4987617;28;20317;-81
2023/06/12 08:05:25;;;;;;;10.43;7.82;;;;;;;27.34;45.75;100675.06;4987273;28;20038;-81
2023/06/12 08:08:08;;;;;;;11.88;7.85;;;;;;;28.25;45.38;100677.00;4990584;28;20082;-81
2023/06/12 08:10:41;;;;;;;9.90;7.97;;;;;;;28.13;44.64;100675.63;4981976;28;20128;-79
2023/06/12 08:13:08;;;;;;;12.30;8.00;;;;;;;29.18;42.72;100670.19;4983365;28;20051;-80
2023/06/12 08:15:35;;;;;;;10.40;7.65;;;;;;;29.27;42.81;100665.84;4982197;28;20046;-81
2023/06/12 08:18:01;;;;;;;9.07;8.18;;;;;;;28.83;43.46;100653.13;4982514;28;20082;-79
2023/06/12 08:20:30;;;;;;;10.07;8.20;;;;;;;28.56;44.65;100668.84;4976921;28;20503;-80
2023/06/12 08:22:58;;;;;;;10.18;7.90;;;;;;;29.21;44.38;100665.06;4991383;28;20069;-79
2023/06/12 08:25:25;;;;;;;9.25;8.00;;;;;;;28.07;45.01;100667.56;4973755;28;20044;-81
2023/06/12 08:27:52;;;;;;;9.10;8.20;;;;;;;28.68;44.23;100674.72;4984028;28;20042;-81
2023/06/12 08:30:19;;;;;;;9.85;7.97;;;;;;;28.27;45.14;100668.66;4978147;28;20093;-81
2023/06/12 08:32:53;;;;;;;10.90;8.25;;;;;;;28.94;45.30;100670.03;4968805;28;20086;-81
2023/06/12 08:35:19;;;;;;;11.98;8.18;;;;;;;30.37;43.68;100663.28;4978763;28;20053;-80
2023/06/12 08:37:47;;;;;;;10.55;8.20;;;;;;;30.13;43.14;100661.69;4976189;28;20489;-79
2023/06/12 08:40:15;;;;;;;11.27;7.97;;;;;;;29.60;43.64;100657.00;4979665;28;20114;-81
2023/06/12 08:42:45;;;;;;;12.40;7.93;;;;;;;30.14;42.92;100674.09;4986477;28;20110;-80
2023/06/12 08:45:15;;;;;;;9.60;7.88;;;;;;;29.30;43.69;100660.66;4986085;28;20079;-79
2023/06/12 08:47:47;;;;;;;12.10;8.88;;;;;;;30.24;43.57;100674.78;4975844;28;20053;-78
2023/06/12 08:50:15;;;;;;;8.52;7.68;;;;;;;30.62;41.42;100654.13;4979617;28;20043;-79
2023/06/12 08:52:50;;;;;;;8.95;8.13;;;;;;;29.80;43.13;100652.50;4979045;28;20047;-80
2023/06/12 08:55:27;;;;;;;10.40;8.25;;;;;;;28.13;44.98;100656.81;4979054;28;20054;-80
2023/06/12 08:57:54;;;;;;;9.23;8.32;;;;;;;28.54;44.54;100642.19;4972124;28;20075;-80
2023/06/12 09:00:38;;;;;;;9.35;8.45;;;;;;;29.17;44.56;100641.66;4972349;28;20055;-80
2023/06/12 09:03:09;;;;;;;10.20;8.13;;;;;;;29.03;44.32;100644.16;4971206;28;20113;-82
2023/06/12 09:05:40;;;;;;;8.85;7.95;;;;;;;29.45;43.59;100650.91;4962383;28;20084;-80
2023/06/12 09:08:08;;;;;;;13.75;8.60;;;;;;;28.62;44.69;100649.69;4961911;28;20094;-80
2023/06/12 09:10:38;;;;;;;9.25;7.57;;;;;;;28.96;44.56;100649.03;4971450;28;20141;-80
2023/06/12 09:13:18;;;;;;;8.18;7.20;;;;;;;28.89;44.25;100643.13;4976807;28;20062;-81
2023/06/12 09:15:52;;;;;;;13.40;8.50;;;;;;;29.28;44.20;100646.69;4976616;28;20058;-81
2023/06/12 09:18:20;;;;;;;11.60;8.05;;;;;;;28.68;44.98;100648.59;4980002;28;20686;-81
2023/06/12 09:20:50;;;;;;;10.95;8.55;;;;;;;28.75;44.74;100648.31;4976058;28;20062;-82
2023/06/12 09:23:20;;;;;;;9.82;8.45;;;;;;;28.25;45.45;100651.97;4972474;28;20047;-81
2023/06/12 09:25:47;;;;;;;9.23;7.80;;;;;;;30.16;44.26;100666.50;4977149;28;20082;-82
2023/06/12 09:28:14;;;;;;;10.02;7.80;;;;;;;31.38;42.21;100651.50;4973337;28;20505;-79
2023/06/12 09:30:41;;;;;;;10.85;8.52;;;;;;;30.02;42.74;100650.19;4971007;28;20051;-79
2023/06/12 09:33:09;;;;;;;10.38;8.20;;;;;;;29.69;43.00;100651.81;4965957;28;20114;-81
2023/06/12 09:35:50;;;;;;;9.40;7.80;;;;;;;29.60;43.10;100651.59;4965962;28;20126;-78
2023/06/12 09:38:18;;;;;;;12.23;7.97;;;;;;;29.01;43.01;100640.91;4967134;28;20069;-80
2023/06/12 09:40:46;;;;;;;8.77;7.80;;;;;;;28.41;43.77;100645.44;4981419;28;20066;-79
2023/06/12 09:43:16;;;;;;;8.73;7.82;;;;;;;28.53;43.68;100645.16;4976935;28;20111;-80
2023/06/12 09:45:49;;;;;;;11.27;7.68;;;;;;;28.48;42.30;100637.91;4971208;28;20051;-81
2023/06/12 09:48:16;;;;;;;9.80;7.85;;;;;;;28.71;43.39;100642.66;4972589;28;20048;-80
2023/06/12 09:50:43;;;;;;;13.77;8.18;;;;;;;28.55;43.93;100651.88;4971601;28;20042;-80
2023/06/12 09:53:13;;;;;;;10.27;8.50;;;;;;;29.05;43.56;100650.06;4974001;28;20050;-80
2023/06/12 09:55:42;;;;;;;9.30;7.85;;;;;;;29.35;43.08;100652.56;4968292;28;20129;-80
2023/06/12 09:58:10;;;;;;;9.05;8.15;;;;;;;29.39;43.17;100647.41;4976612;28;20062;-81
2023/06/12 10:00:37;;;;;;;9.48;7.93;;;;;;;29.68;42.08;100644.81;4969326;28;20560;-81
2023/06/12 10:03:09;;;;;;;10.10;8.05;;;;;;;29.29;42.21;100645.59;4973161;28;20059;-80
2023/06/12 10:05:37;;;;;;;8.75;7.80;;;;;;;28.38;43.36;100643.31;4967035;28;20578;-80
2023/06/12 10:08:05;;;;;;;8.60;7.80;;;;;;;28.62;43.95;100644.31;4975451;28;20117;-80
2023/06/12 10:10:34;;;;;;;9.43;8.43;;;;;;;28.15;44.54;100646.59;4969056;28;20138;-81
2023/06/12 10:13:02;;;;;;;9.75;8.52;;;;;;;28.68;44.11;100643.22;4969629;28;20058;-78
2023/06/12 10:15:30;;;;;;;9.27;8.10;;;;;;;28.88;43.64;100644.22;4969648;28;20492;-79
2023/06/12 10:17:58;;;;;;;9.80;8.80;;;;;;;29.24;43.14;100639.44;4970540;28;20058;-82
2023/06/12 10:20:26;;;;;;;10.82;7.82;;;;;;;28.73;43.14;100650.47;4966518;28;20492;-82
2023/06/12 10:22:55;;;;;;;11.27;8.02;;;;;;;28.80;44.32;100650.19;4966839;28;20051;-80
2023/06/12 10:25:22;;;;;;;9.73;8.20;;;;;;;28.78;44.09;100646.94;4966772;28;20085;-79
2023/06/12 10:27:51;;;;;;;8.77;7.88;;;;;;;29.23;43.84;100637.84;4965876;28;20055;-79
2023/06/12 10:30:21;;;;;;;9.88;8.10;;;;;;;29.25;43.48;100641.88;4964392;28;20130;-78
2023/06/12 10:32:48;;;;;;;8.80;7.90;;;;;;;28.80;44.15;100642.91;4971322;28;20055;-80
2023/06/12 10:35:37;;;;;;;12.30;8.15;;;;;;;29.02;42.70;100631.75;4976821;28;20058;-80
2023/06/12 10:38:04;;;;;;;8.68;7.72;;;;;;;29.89;42.44;100630.03;4968533;28;20094;-78
2023/06/12 10:40:31;;;;;;;8.85;8.00;;;;;;;29.25;42.47;100630.28;4977337;28;20417;-82
2023/06/12 10:43:02;;;;;;;9.85;8.10;;;;;;;29.25;42.25;100625.69;4967509;28;20473;-78
2023/06/12 10:45:32;;;;;;;13.73;7.68;;;;;;;29.69;43.36;100625.66;4970361;28;20105;-78
2023/06/12 10:48:20;;;;;;;11.50;8.07;;;;;;;31.08;42.53;100623.81;4970326;28;20134;-81
2023/06/12 10:50:49;;;;;;;9.07;8.05;;;;;;;31.47;40.24;100619.97;4977657;28;20251;-79
2023/06/12 10:53:21;;;;;;;10.15;7.53;;;;;;;30.87;40.17;100600.84;4976031;28;20093;-81
2023/06/12 10:55:48;;;;;;;;;;;;;;;29.84;41.27;100611.19;4968833;28;20415;-81
2023/06/12 10:58:18;;;;;;;9.57;8.02;;;;;;;29.93;42.01;100612.19;4982508;28;20127;-80
2023/06/12 11:00:47;;;;;;;10.45;7.32;;;;;;;29.26;41.15;100603.06;4966200;28;20073;-78
2023/06/12 11:03:22;;;;;;;12.00;7.72;;;;;;;29.34;40.63;100596.22;4967890;28;20508;-80
2023/06/12 11:05:50;;;;;;;12.52;8.15;;;;;;;29.47;41.57;100605.59;4967688;28;20200;-79
2023/06/12 11:08:17;;;;;;;11.48;7.63;;;;;;;29.29;41.36;100599.00;4962849;28;20065;-79
2023/06/12 11:10:46;;;;;;;10.23;7.28;;;;;;;30.29;40.19;100601.84;4970848;28;20050;-81
2023/06/12 11:13:12;;;;;;;9.95;7.88;;;;;;;30.03;40.72;100614.81;4963032;28;20504;-79
2023/06/12 11:15:43;;;;;;;9.55;7.80;;;;;;;29.82;40.96;100607.97;4971243;28;20070;-80
2023/06/12 11:18:12;;;;;;;11.45;7.80;;;;;;;29.77;40.79;100616.13;4967248;28;20078;-79
2023/06/12 11:20:40;;;;;;;9.90;7.50;;;;;;;29.51;41.05;100596.66;4967223;28;20517;-81
2023/06/12 11:23:07;;;;;;;8.25;7.45;;;;;;;29.76;40.96;100602.94;4959614;28;20255;-80